createdAt,value
2022-08-10T00:00:51.744Z,55.20
2022-08-10T00:03:18.196Z,55.79
2022-08-10T00:05:52.598Z,55.56
2022-08-10T00:08:24.110Z,55.28
2022-08-10T00:10:54.315Z,55.68
2022-08-10T00:13:21.310Z,55.84
2022-08-10T00:15:53.947Z,55.46
2022-08-10T00:18:34.715Z,54.81
2022-08-10T00:21:01.934Z,58.14
2022-08-10T00:23:28.385Z,55.29
2022-08-10T00:25:54.823Z,56.78
2022-08-10T00:28:21.257Z,56.97
2022-08-10T00:30:47.711Z,56.94
2022-08-10T00:33:14.171Z,57.28
2022-08-10T00:35:40.599Z,56.49
2022-08-10T00:38:07.032Z,58.16
2022-08-10T00:40:37.285Z,58.16
2022-08-10T00:43:05.248Z,57.54
2022-08-10T00:45:31.660Z,57.41
2022-08-10T00:47:58.091Z,57.59
2022-08-10T00:50:24.561Z,57.61
2022-08-10T00:52:50.999Z,58.79
2022-08-10T00:55:17.613Z,58.98
2022-08-10T00:57:44.101Z,58.29
2022-08-10T01:00:11.573Z,60.37
2022-08-10T01:02:38.651Z,58.77
2022-08-10T01:05:07.804Z,59.09
2022-08-10T01:07:42.809Z,58.85
2022-08-10T01:10:27.765Z,60.23
2022-08-10T01:13:04.320Z,58.57
2022-08-10T01:15:50.177Z,59.78
2022-08-10T01:18:37.688Z,59.21
2022-08-10T01:21:19.505Z,59.84
2022-08-10T01:24:04.711Z,60.32
2022-08-10T01:26:40.680Z,58.09
2022-08-10T01:29:10.391Z,59.55
2022-08-10T01:31:40.677Z,60.53
2022-08-10T01:34:13.083Z,61.02
2022-08-10T01:36:46.383Z,60.40
2022-08-10T01:39:14.669Z,58.59
2022-08-10T01:41:46.318Z,62.13
2022-08-10T01:44:24.773Z,62.73
2022-08-10T01:46:57.248Z,61.04
2022-08-10T01:49:24.757Z,61.68
2022-08-10T01:51:54.251Z,60.82
2022-08-10T01:54:23.003Z,60.96
2022-08-10T01:56:50.811Z,61.49
2022-08-10T01:59:30.260Z,60.71
2022-08-10T02:02:00.187Z,61.12
2022-08-10T02:04:27.842Z,62.44
2022-08-10T02:06:54.855Z,61.05
2022-08-10T02:09:23.945Z,62.56
2022-08-10T02:12:06.098Z,61.05
2022-08-10T02:14:40.552Z,63.54
2022-08-10T02:17:09.281Z,63.13
2022-08-10T02:19:57.391Z,62.04
2022-08-10T02:22:37.954Z,64.81
2022-08-10T02:25:07.011Z,64.35
2022-08-10T02:27:33.798Z,62.59
2022-08-10T02:30:01.651Z,63.21
2022-08-10T02:32:36.216Z,63.78
2022-08-10T02:35:04.654Z,64.16
2022-08-10T02:37:31.518Z,64.43
2022-08-10T02:39:57.988Z,63.89
2022-08-10T02:45:19.340Z,63.23
2022-08-10T02:45:31.062Z,63.44
2022-08-10T02:48:20.073Z,63.29
2022-08-10T02:50:48.822Z,63.78
2022-08-10T02:53:49.518Z,64.32
2022-08-10T02:56:20.069Z,64.37
2022-08-10T02:58:48.909Z,63.49
2022-08-10T03:01:17.543Z,64.43
2022-08-10T03:03:47.291Z,64.05
2022-08-10T03:06:17.895Z,63.87
2022-08-10T03:08:45.238Z,65.16
2022-08-10T03:11:16.392Z,65.76
2022-08-10T03:14:03.425Z,64.58
2022-08-10T03:16:33.082Z,65.55
2022-08-10T03:19:02.403Z,65.19
2022-08-10T03:21:30.379Z,65.50
2022-08-10T03:23:58.366Z,65.60
2022-08-10T03:26:25.919Z,66.02
2022-08-10T03:28:52.953Z,65.49
2022-08-10T03:31:19.737Z,65.55
2022-08-10T03:33:46.306Z,65.96
2022-08-10T03:36:43.462Z,65.89
2022-08-10T03:38:59.371Z,66.97
2022-08-10T03:41:35.593Z,65.26
2022-08-10T03:44:03.302Z,65.85
2022-08-10T03:46:30.135Z,66.94
2022-08-10T03:48:57.820Z,66.57
2022-08-10T03:51:27.726Z,65.73
2022-08-10T03:54:04.779Z,66.84
2022-08-10T03:56:33.673Z,66.76
2022-08-10T03:59:01.325Z,67.22
2022-08-10T04:02:41.989Z,66.53
2022-08-10T04:04:19.245Z,67.25
2022-08-10T04:06:51.484Z,65.76
2022-08-10T04:09:22.365Z,64.63
2022-08-10T04:11:48.794Z,66.13
2022-08-10T04:14:38.293Z,66.47
2022-08-10T04:17:01.621Z,66.57
2022-08-10T04:19:29.861Z,67.13
2022-08-10T04:22:13.810Z,65.74
2022-08-10T04:24:41.699Z,66.04
2022-08-10T04:27:08.464Z,65.79
2022-08-10T04:29:35.206Z,65.42
2022-08-10T04:32:02.999Z,66.59
2022-08-10T04:34:33.537Z,67.05
2022-08-10T04:37:04.370Z,67.32
2022-08-10T04:39:33.305Z,69.93
2022-08-10T04:42:00.035Z,66.99
2022-08-10T04:44:26.449Z,66.59
2022-08-10T04:46:58.414Z,68.02
2022-08-10T04:49:54.083Z,68.60
2022-08-10T04:52:12.957Z,69.48
2022-08-10T04:54:39.459Z,68.52
2022-08-10T04:57:06.047Z,69.25
2022-08-10T04:59:32.582Z,68.28
2022-08-10T05:02:21.290Z,69.01
2022-08-10T05:04:45.439Z,67.82
2022-08-10T05:07:15.937Z,68.86
2022-08-10T05:10:02.957Z,66.56
2022-08-10T05:12:30.728Z,67.28
2022-08-10T05:14:57.207Z,67.09
2022-08-10T05:17:24.075Z,69.45
2022-08-10T05:20:04.321Z,67.88
2022-08-10T05:22:37.038Z,67.55
2022-08-10T05:25:04.111Z,66.34
2022-08-10T05:27:30.536Z,66.68
2022-08-10T05:30:01.009Z,66.92
2022-08-10T05:32:29.452Z,68.22
2022-08-10T05:34:55.878Z,67.50
2022-08-10T05:38:10.521Z,66.69
2022-08-10T05:40:09.530Z,68.26
2022-08-10T05:42:36.356Z,67.64
2022-08-10T05:45:03.034Z,66.89
2022-08-10T05:47:29.526Z,67.43
2022-08-10T05:50:16.487Z,66.91
2022-08-10T05:52:43.221Z,66.89
2022-08-10T05:55:09.901Z,66.94
2022-08-10T05:57:36.526Z,67.31
2022-08-10T06:00:30.847Z,66.91
2022-08-10T06:02:54.578Z,67.13
2022-08-10T06:05:25.115Z,66.77
2022-08-10T06:07:54.448Z,66.16
2022-08-10T06:10:31.584Z,66.62
2022-08-10T06:13:30.757Z,66.70
2022-08-10T06:16:03.862Z,66.04
2022-08-10T06:18:30.904Z,66.21
2022-08-10T06:20:57.508Z,65.61
2022-08-10T06:23:25.587Z,65.15
2022-08-10T06:26:10.103Z,65.28
2022-08-10T06:28:39.942Z,62.80
2022-08-10T06:31:07.271Z,61.81
2022-08-10T06:33:35.067Z,61.65
2022-08-10T06:36:02.606Z,60.54
2022-08-10T06:38:31.976Z,57.99
2022-08-10T06:41:01.490Z,57.74
2022-08-10T06:43:28.907Z,54.73
2022-08-10T06:46:08.387Z,55.44
2022-08-10T06:48:42.551Z,54.16
2022-08-10T06:51:14.154Z,52.34
2022-08-10T06:53:52.016Z,51.65
2022-08-10T06:56:36.535Z,51.01
2022-08-10T06:59:21.959Z,49.65
2022-08-10T07:02:01.133Z,47.05
2022-08-10T07:04:32.983Z,45.49
2022-08-10T07:07:02.097Z,45.15
2022-08-10T07:09:28.743Z,44.06
2022-08-10T07:11:56.807Z,45.33
2022-08-10T07:14:36.720Z,43.64
2022-08-10T07:17:03.887Z,42.88
2022-08-10T07:19:31.698Z,42.69
2022-08-10T07:21:59.404Z,43.17
2022-08-10T07:24:27.181Z,43.22
2022-08-10T07:26:55.114Z,42.73
2022-08-10T07:29:53.569Z,42.26
2022-08-10T07:32:15.318Z,42.58
2022-08-10T07:34:42.589Z,43.48
2022-08-10T07:37:10.750Z,41.64
2022-08-10T07:40:02.579Z,41.76
2022-08-10T07:42:27.467Z,41.27
2022-08-10T07:44:57.863Z,41.81
2022-08-10T07:47:46.104Z,40.52
2022-08-10T07:50:18.738Z,40.10
2022-08-10T07:52:45.959Z,41.00
2022-08-10T07:55:15.603Z,41.08
2022-08-10T07:57:43.778Z,39.62
2022-08-10T08:00:13.780Z,39.63
2022-08-10T08:02:51.663Z,37.57
2022-08-10T08:05:55.120Z,37.72
2022-08-10T08:08:07.933Z,37.60
2022-08-10T08:10:35.395Z,38.10
2022-08-10T08:13:02.738Z,38.57
2022-08-10T08:16:20.730Z,37.27
2022-08-10T08:18:19.425Z,35.45
2022-08-10T08:20:51.491Z,36.61
2022-08-10T08:24:10.890Z,36.40
2022-08-10T08:26:06.490Z,35.83
2022-08-10T08:28:34.083Z,35.38
2022-08-10T08:31:00.928Z,36.17
2022-08-10T08:33:42.158Z,35.56
2022-08-10T08:36:09.929Z,36.64
2022-08-10T08:38:37.617Z,37.39
2022-08-10T08:41:14.149Z,36.91
2022-08-10T08:43:46.531Z,36.85
2022-08-10T08:46:19.658Z,36.49
2022-08-10T08:48:52.126Z,36.55
2022-08-10T08:52:09.871Z,38.24
2022-08-10T08:54:14.992Z,37.14
2022-08-10T08:56:48.273Z,37.52
2022-08-10T08:59:22.611Z,37.56
2022-08-10T09:01:52.054Z,37.40
2022-08-10T09:04:22.245Z,37.20
2022-08-10T09:06:58.047Z,38.04
2022-08-10T09:09:36.491Z,38.75
2022-08-10T09:12:13.517Z,38.04
2022-08-10T09:14:54.924Z,37.20
2022-08-10T09:17:35.112Z,37.82
2022-08-10T09:20:26.822Z,38.04
2022-08-10T09:22:59.996Z,37.78
2022-08-10T09:25:30.457Z,38.28
2022-08-10T09:28:01.110Z,37.55
2022-08-10T09:30:38.437Z,38.38
2022-08-10T09:36:20.690Z,37.75
2022-08-10T09:36:25.754Z,38.61
2022-08-10T09:38:57.906Z,36.94
2022-08-10T09:41:24.349Z,37.76
2022-08-10T09:43:55.606Z,36.92
2022-08-10T09:46:44.067Z,36.91
2022-08-10T09:49:22.366Z,36.42
2022-08-10T09:52:00.846Z,37.09
2022-08-10T09:54:27.273Z,36.45
2022-08-10T09:57:11.975Z,36.07
2022-08-10T10:00:01.484Z,36.35
2022-08-10T10:02:28.863Z,35.77
2022-08-10T10:04:55.275Z,36.80
2022-08-10T10:07:31.084Z,36.83
2022-08-10T10:10:07.043Z,36.03
2022-08-10T10:12:39.970Z,36.12
2022-08-10T10:15:24.377Z,35.74
2022-08-10T10:18:07.025Z,36.11
2022-08-10T10:20:33.411Z,35.79
2022-08-10T10:23:02.972Z,35.74
2022-08-10T10:25:50.315Z,35.22
2022-08-10T10:29:11.435Z,34.98
2022-08-10T10:31:42.211Z,34.77
2022-08-10T10:34:11.437Z,34.74
2022-08-10T10:36:40.190Z,33.85
2022-08-10T10:39:07.689Z,34.50
2022-08-10T10:41:55.843Z,33.63
2022-08-10T10:44:42.131Z,34.55
2022-08-10T10:47:12.033Z,34.27
2022-08-10T10:49:42.761Z,33.22
2022-08-10T10:52:28.037Z,33.49
2022-08-10T10:55:03.530Z,34.47
2022-08-10T10:58:00.466Z,32.72
2022-08-10T11:00:23.156Z,32.91
2022-08-10T11:02:54.082Z,32.34
2022-08-10T11:05:24.296Z,31.71
2022-08-10T11:07:58.211Z,32.50
2022-08-10T11:10:32.941Z,32.78
2022-08-10T11:14:25.984Z,32.33
2022-08-10T11:16:05.902Z,31.95
2022-08-10T11:18:33.799Z,31.79
2022-08-10T11:21:18.740Z,31.06
2022-08-10T11:24:42.556Z,29.91
2022-08-10T11:26:48.760Z,30.28
2022-08-10T11:29:33.743Z,29.64
2022-08-10T11:32:03.247Z,29.30
2022-08-10T11:34:48.150Z,29.58
2022-08-10T11:38:32.268Z,29.36
2022-08-10T11:40:52.247Z,28.68
2022-08-10T11:43:22.065Z,29.03
2022-08-10T11:46:08.102Z,28.89
2022-08-10T11:48:53.102Z,27.19
2022-08-10T11:51:26.831Z,26.87
2022-08-10T11:54:05.480Z,26.55
2022-08-10T11:56:43.013Z,26.00
2022-08-10T11:59:28.156Z,26.94
2022-08-10T12:01:55.681Z,25.41
2022-08-10T12:04:23.475Z,25.70
2022-08-10T12:06:55.504Z,25.51
2022-08-10T12:10:11.243Z,23.59
2022-08-10T12:12:11.527Z,24.01
2022-08-10T12:14:53.447Z,23.27
2022-08-10T12:17:31.516Z,23.78
2022-08-10T12:20:16.201Z,22.98
2022-08-10T12:22:51.478Z,23.26
2022-08-10T12:25:55.996Z,22.69
2022-08-10T12:28:17.663Z,22.24
2022-08-10T12:30:50.183Z,22.38
2022-08-10T12:34:01.441Z,22.38
2022-08-10T12:36:33.620Z,22.92
2022-08-10T12:39:00.136Z,22.88
2022-08-10T12:41:44.237Z,22.84
2022-08-10T12:44:18.300Z,23.57
2022-08-10T12:47:14.135Z,21.68
2022-08-10T12:50:30.264Z,21.69
2022-08-10T12:52:38.037Z,22.77
2022-08-10T12:55:05.329Z,21.89
2022-08-10T12:57:34.587Z,21.45
2022-08-10T13:00:01.514Z,21.84
2022-08-10T13:02:28.803Z,21.66
2022-08-10T13:04:57.094Z,22.20
2022-08-10T13:08:25.878Z,23.23
2022-08-10T13:10:18.311Z,23.90
2022-08-10T13:12:47.086Z,24.23
2022-08-10T13:15:45.265Z,24.01
2022-08-10T13:18:03.980Z,21.95
2022-08-10T13:20:34.830Z,22.73
2022-08-10T13:23:02.919Z,22.62
2022-08-10T13:25:31.900Z,20.72
2022-08-10T13:28:36.252Z,20.59
2022-08-10T13:30:54.155Z,20.72
2022-08-10T13:34:40.301Z,20.60
2022-08-10T13:36:14.585Z,22.21
2022-08-10T13:38:43.859Z,22.35
2022-08-10T13:41:11.448Z,21.80
2022-08-10T13:43:48.240Z,21.86
2022-08-10T13:46:22.322Z,21.65
2022-08-10T13:48:50.306Z,20.61
2022-08-10T13:51:18.148Z,19.90
2022-08-10T13:53:46.150Z,20.70
2022-08-10T13:56:14.544Z,21.30
2022-08-10T13:58:41.946Z,20.86
2022-08-10T14:01:10.159Z,21.18
2022-08-10T14:03:38.565Z,20.95
2022-08-10T14:06:06.938Z,21.82
2022-08-10T14:08:35.446Z,21.32
2022-08-10T14:11:10.987Z,21.79
2022-08-10T14:13:42.104Z,21.38
2022-08-10T14:16:10.458Z,21.62
2022-08-10T14:18:37.189Z,22.08
2022-08-10T14:21:04.982Z,21.35
2022-08-10T14:23:32.515Z,21.96
2022-08-10T14:26:08.956Z,22.08
2022-08-10T14:28:41.748Z,21.85
2022-08-10T14:31:11.597Z,21.98
2022-08-10T14:33:41.658Z,22.04
2022-08-10T14:36:20.991Z,21.92
2022-08-10T14:38:53.139Z,20.79
2022-08-10T14:42:04.500Z,21.13
2022-08-10T14:44:12.664Z,20.86
2022-08-10T14:46:51.615Z,21.99
2022-08-10T14:49:25.584Z,21.33
2022-08-10T14:51:57.800Z,20.78
2022-08-10T14:54:29.614Z,21.02
2022-08-10T14:56:57.197Z,21.12
2022-08-10T15:00:08.558Z,21.51
2022-08-10T15:02:39.870Z,21.10
2022-08-10T15:05:03.370Z,21.44
2022-08-10T15:07:36.333Z,22.15
2022-08-10T15:10:04.573Z,22.22
2022-08-10T15:12:32.640Z,22.28
2022-08-10T15:15:01.187Z,21.58
2022-08-10T15:17:37.272Z,22.40
2022-08-10T15:20:13.597Z,22.47
2022-08-10T15:22:45.493Z,21.75
2022-08-10T15:25:17.966Z,22.61
2022-08-10T15:27:54.732Z,22.29
2022-08-10T15:30:23.760Z,22.85
2022-08-10T15:33:21.261Z,22.26
2022-08-10T15:36:22.304Z,22.46
2022-08-10T15:38:49.829Z,23.27
2022-08-10T15:41:57.475Z,22.30
2022-08-10T15:44:20.510Z,22.89
2022-08-10T15:46:49.618Z,23.54
2022-08-10T15:49:34.677Z,23.46
2022-08-10T15:52:07.405Z,24.11
2022-08-10T15:54:39.383Z,24.44
2022-08-10T15:57:08.213Z,24.51
2022-08-10T15:59:44.573Z,24.47
2022-08-10T16:02:17.287Z,24.62
2022-08-10T16:04:52.669Z,24.96
2022-08-10T16:07:45.634Z,25.24
2022-08-10T16:10:28.722Z,24.90
2022-08-10T16:14:00.707Z,25.26
2022-08-10T16:16:01.887Z,25.04
2022-08-10T16:18:29.466Z,25.16
2022-08-10T16:21:00.596Z,24.50
2022-08-10T16:23:29.565Z,24.70
2022-08-10T16:26:03.009Z,24.94
2022-08-10T16:28:33.386Z,25.09
2022-08-10T16:31:01.944Z,24.92
2022-08-10T16:33:54.009Z,25.26
2022-08-10T16:36:18.825Z,25.78
2022-08-10T16:38:47.112Z,25.87
2022-08-10T16:41:52.060Z,26.14
2022-08-10T16:44:00.959Z,25.84
2022-08-10T16:46:28.003Z,26.18
2022-08-10T16:48:56.809Z,25.80
2022-08-10T16:51:24.258Z,25.91
2022-08-10T16:53:51.831Z,26.19
2022-08-10T16:56:24.394Z,26.09
2022-08-10T16:58:53.894Z,26.41
2022-08-10T17:01:21.757Z,26.31
2022-08-10T17:04:09.396Z,26.40
2022-08-10T17:06:42.859Z,26.50
2022-08-10T17:09:15.957Z,26.47
2022-08-10T17:11:45.046Z,26.67
2022-08-10T17:14:11.543Z,26.95
2022-08-10T17:16:41.048Z,26.79
2022-08-10T17:19:11.951Z,26.83
2022-08-10T17:21:51.000Z,27.13
2022-08-10T17:24:20.140Z,27.15
2022-08-10T17:26:48.289Z,27.32
2022-08-10T17:29:59.264Z,27.46
2022-08-10T17:32:25.493Z,27.33
2022-08-10T17:34:55.527Z,27.62
2022-08-10T17:37:24.478Z,27.80
2022-08-10T17:39:58.119Z,27.85
2022-08-10T17:42:25.206Z,27.70
2022-08-10T17:44:52.889Z,28.00
2022-08-10T17:47:20.856Z,28.07
2022-08-10T17:49:47.984Z,28.30
2022-08-10T17:52:19.827Z,28.69
2022-08-10T17:54:47.171Z,28.45
2022-08-10T17:57:18.735Z,28.48
2022-08-10T17:59:46.744Z,29.03
2022-08-10T18:02:24.073Z,29.17
2022-08-10T18:04:52.634Z,29.12
2022-08-10T18:07:20.901Z,29.45
2022-08-10T18:09:54.956Z,29.41
2022-08-10T18:12:34.472Z,29.40
2022-08-10T18:15:08.518Z,29.41
2022-08-10T18:17:40.891Z,30.40
2022-08-10T18:20:08.768Z,29.93
2022-08-10T18:22:42.224Z,30.23
2022-08-10T18:25:09.374Z,30.25
2022-08-10T18:28:01.224Z,29.94
2022-08-10T18:30:26.726Z,29.92
2022-08-10T18:32:54.829Z,30.39
2022-08-10T18:35:24.353Z,30.70
2022-08-10T18:38:01.336Z,31.26
2022-08-10T18:40:35.768Z,31.03
2022-08-10T18:43:08.586Z,30.58
2022-08-10T18:45:53.102Z,31.02
2022-08-10T18:48:22.715Z,31.11
2022-08-10T18:50:52.899Z,31.13
2022-08-10T18:53:30.945Z,31.55
2022-08-10T18:56:10.570Z,31.03
2022-08-10T18:58:58.461Z,31.30
2022-08-10T19:01:28.645Z,31.47
2022-08-10T19:04:01.395Z,31.36
2022-08-10T19:06:52.846Z,31.44
2022-08-10T19:09:45.912Z,31.65
2022-08-10T19:12:30.091Z,32.25
2022-08-10T19:14:58.085Z,32.37
2022-08-10T19:18:03.862Z,33.23
2022-08-10T19:20:22.568Z,33.27
2022-08-10T19:22:53.919Z,33.11
2022-08-10T19:26:38.145Z,33.39
2022-08-10T19:28:14.476Z,33.14
2022-08-10T19:30:45.703Z,33.28
2022-08-10T19:33:18.270Z,33.07
2022-08-10T19:36:05.375Z,33.32
2022-08-10T19:38:37.993Z,33.89
2022-08-10T19:41:30.902Z,33.66
2022-08-10T19:44:18.087Z,35.02
2022-08-10T19:46:59.690Z,34.37
2022-08-10T19:49:28.869Z,34.57
2022-08-10T19:52:14.187Z,34.61
2022-08-10T19:54:50.222Z,34.09
2022-08-10T19:57:22.746Z,34.33
2022-08-10T20:00:18.622Z,34.73
2022-08-10T20:02:52.939Z,35.00
2022-08-10T20:05:27.662Z,34.81
2022-08-10T20:07:54.075Z,35.13
2022-08-10T20:10:25.052Z,35.06
2022-08-10T20:12:54.244Z,35.41
2022-08-10T20:15:22.009Z,35.17
2022-08-10T20:17:56.293Z,35.35
2022-08-10T20:20:34.475Z,35.27
2022-08-10T20:23:26.282Z,35.53
2022-08-10T20:25:58.919Z,36.23
2022-08-10T20:28:35.928Z,36.32
2022-08-10T20:31:10.301Z,36.80
2022-08-10T20:33:51.655Z,37.09
2022-08-10T20:36:38.165Z,37.29
2022-08-10T20:39:18.697Z,37.11
2022-08-10T20:41:55.452Z,37.97
2022-08-10T20:44:40.522Z,38.51
2022-08-10T20:47:18.847Z,38.40
2022-08-10T20:49:52.901Z,37.33
2022-08-10T20:52:20.806Z,37.93
2022-08-10T20:54:51.071Z,39.00
2022-08-10T20:57:54.830Z,37.78
2022-08-10T21:00:10.949Z,39.25
2022-08-10T21:02:56.486Z,39.57
2022-08-10T21:05:49.760Z,39.64
2022-08-10T21:08:30.091Z,39.40
2022-08-10T21:11:08.061Z,39.49
2022-08-10T21:13:40.653Z,39.82
2022-08-10T21:16:07.092Z,40.98
2022-08-10T21:18:33.463Z,41.17
2022-08-10T21:21:06.965Z,41.94
2022-08-10T21:25:42.267Z,40.56
2022-08-10T21:26:30.149Z,42.80
2022-08-10T21:29:21.433Z,40.79
2022-08-10T21:31:55.277Z,42.76
2022-08-10T21:34:40.425Z,43.18
2022-08-10T21:37:42.677Z,43.95
2022-08-10T21:40:32.436Z,43.62
2022-08-10T21:43:44.551Z,43.18
2022-08-10T21:46:34.267Z,43.81
2022-08-10T21:49:24.066Z,43.26
2022-08-10T21:52:08.899Z,43.59
2022-08-10T21:55:17.218Z,43.95
2022-08-10T21:58:08.959Z,44.53
2022-08-10T22:01:00.421Z,44.80
2022-08-10T22:03:46.457Z,44.68
2022-08-10T22:06:32.687Z,45.57
2022-08-10T22:09:25.159Z,44.92
2022-08-10T22:12:31.400Z,46.00
2022-08-10T22:15:21.825Z,45.68
2022-08-10T22:18:07.485Z,46.02
2022-08-10T22:20:57.552Z,46.70
2022-08-10T22:23:42.576Z,46.99
2022-08-10T22:27:00.756Z,46.37
2022-08-10T22:29:57.463Z,46.86
2022-08-10T22:32:50.810Z,46.90
2022-08-10T22:35:54.421Z,47.18
2022-08-10T22:38:42.566Z,47.70
2022-08-10T22:41:31.749Z,48.22
2022-08-10T22:44:18.223Z,48.93
2022-08-10T22:47:04.425Z,48.21
2022-08-10T22:49:30.853Z,47.28
2022-08-10T22:52:06.465Z,48.34
2022-08-10T22:54:52.421Z,48.53
2022-08-10T22:57:37.836Z,47.85
2022-08-10T23:00:15.208Z,48.92
2022-08-10T23:03:02.733Z,48.43
2022-08-10T23:05:34.214Z,49.49
2022-08-10T23:08:29.733Z,49.50
2022-08-10T23:11:01.977Z,49.41
2022-08-10T23:13:36.143Z,49.82
2022-08-10T23:16:28.099Z,49.65
2022-08-10T23:46:41.416Z,51.42
2022-08-10T23:49:10.565Z,52.10
2022-08-10T23:51:55.299Z,51.58
2022-08-10T23:54:23.985Z,51.11
2022-08-10T23:56:56.550Z,52.84
2022-08-10T23:59:28.426Z,52.14
